AUA9YP LKPR-LOWW
Flight info
| Callsign | AUA9YP |
|---|---|
| Flight time | 0h 34m |
| Altitude | 17000 |
| Route | VOZ DCT LANUX |
| Aircraft | A20N/M-SDE2E3FGHIRWXY/LB1 |
Departure
| Time | 2026-05-06 17:56 |
|---|---|
| Airport | Václav Havel Airport Prague (LKPR) |
Arrival
| Time | 2026-05-06 18:30 |
|---|---|
| Airport | Vienna International Airport (LOWW) |
| Time | Latitude | Longitude | Altitude | Speed | Heading |
|---|---|---|---|---|---|
| 2026-05-06 17:19 | 50.10595 | 14.26282 | 1177 ft | 0 kts | 34° |
| 2026-05-06 17:45 | 50.10576 | 14.26264 | 1176 ft | 4 kts | 19° |
| 2026-05-06 17:45 | 50.10550 | 14.26257 | 1175 ft | 4 kts | 348° |
| 2026-05-06 17:45 | 50.10527 | 14.26274 | 1172 ft | 4 kts | 316° |
| 2026-05-06 17:45 | 50.10514 | 14.26296 | 1176 ft | 0 kts | 304° |
| 2026-05-06 17:48 | 50.10526 | 14.26269 | 1173 ft | 6 kts | 303° |
| 2026-05-06 17:48 | 50.10540 | 14.26187 | 1177 ft | 9 kts | 284° |
| 2026-05-06 17:48 | 50.10578 | 14.26089 | 1175 ft | 12 kts | 293° |
| 2026-05-06 17:48 | 50.10548 | 14.25992 | 1180 ft | 10 kts | 212° |
| 2026-05-06 17:49 | 50.10498 | 14.25993 | 1184 ft | 7 kts | 147° |
| 2026-05-06 17:49 | 50.10461 | 14.26062 | 1185 ft | 9 kts | 127° |
| 2026-05-06 17:49 | 50.10415 | 14.26154 | 1187 ft | 12 kts | 127° |
| 2026-05-06 17:49 | 50.10361 | 14.26265 | 1189 ft | 17 kts | 126° |
| 2026-05-06 17:50 | 50.10284 | 14.26430 | 1193 ft | 20 kts | 126° |
| 2026-05-06 17:50 | 50.10198 | 14.26607 | 1196 ft | 21 kts | 128° |
| 2026-05-06 17:50 | 50.10112 | 14.26786 | 1199 ft | 21 kts | 127° |
| 2026-05-06 17:50 | 50.10028 | 14.26959 | 1203 ft | 20 kts | 127° |
| 2026-05-06 17:51 | 50.09948 | 14.27128 | 1206 ft | 19 kts | 126° |
| 2026-05-06 17:51 | 50.09863 | 14.27304 | 1204 ft | 21 kts | 133° |
| 2026-05-06 17:51 | 50.09756 | 14.27467 | 1206 ft | 22 kts | 135° |
| 2026-05-06 17:51 | 50.09651 | 14.27626 | 1207 ft | 19 kts | 136° |
| 2026-05-06 17:52 | 50.09557 | 14.27768 | 1210 ft | 18 kts | 134° |
| 2026-05-06 17:52 | 50.09471 | 14.27907 | 1215 ft | 17 kts | 134° |
| 2026-05-06 17:52 | 50.09389 | 14.28033 | 1219 ft | 16 kts | 135° |
| 2026-05-06 17:52 | 50.09312 | 14.28152 | 1223 ft | 15 kts | 137° |
| 2026-05-06 17:53 | 50.09237 | 14.28261 | 1226 ft | 14 kts | 137° |
| 2026-05-06 17:53 | 50.09161 | 14.28283 | 1233 ft | 6 kts | 201° |
| 2026-05-06 17:53 | 50.09157 | 14.28280 | 1233 ft | 0 kts | 204° |
| 2026-05-06 17:54 | 50.09138 | 14.28260 | 1241 ft | 6 kts | 216° |
| 2026-05-06 17:54 | 50.09089 | 14.28185 | 1238 ft | 15 kts | 238° |
| 2026-05-06 17:54 | 50.09099 | 14.28059 | 1232 ft | 0 kts | 306° |
| 2026-05-06 17:55 | 50.09144 | 14.27965 | 1233 ft | 39 kts | 306° |
| 2026-05-06 17:55 | 50.09459 | 14.27318 | 1217 ft | 108 kts | 306° |
| 2026-05-06 17:55 | 50.10022 | 14.26153 | 1203 ft | 159 kts | 308° |
| 2026-05-06 17:55 | 50.10704 | 14.24783 | 1704 ft | 160 kts | 309° |
| 2026-05-06 17:56 | 50.11381 | 14.23391 | 2321 ft | 161 kts | 307° |
| 2026-05-06 17:56 | 50.12051 | 14.21996 | 2919 ft | 162 kts | 306° |
| 2026-05-06 17:56 | 50.12759 | 14.20516 | 3277 ft | 179 kts | 306° |
| 2026-05-06 17:56 | 50.13545 | 14.18874 | 3577 ft | 199 kts | 306° |
| 2026-05-06 17:57 | 50.14419 | 14.17054 | 3886 ft | 222 kts | 306° |
| 2026-05-06 17:57 | 50.15399 | 14.15013 | 4260 ft | 247 kts | 306° |
| 2026-05-06 17:57 | 50.16477 | 14.12774 | 4843 ft | 267 kts | 305° |
| 2026-05-06 17:57 | 50.17568 | 14.10439 | 5720 ft | 271 kts | 298° |
| 2026-05-06 17:58 | 50.18133 | 14.07666 | 6665 ft | 269 kts | 271° |
| 2026-05-06 17:58 | 50.17835 | 14.04824 | 7579 ft | 267 kts | 244° |
| 2026-05-06 17:58 | 50.16758 | 14.02500 | 8530 ft | 266 kts | 220° |
| 2026-05-06 17:58 | 50.15271 | 14.00753 | 9509 ft | 269 kts | 216° |
| 2026-05-06 17:59 | 50.13705 | 13.99110 | 10266 ft | 279 kts | 206° |
| 2026-05-06 17:59 | 50.11743 | 13.98372 | 10603 ft | 306 kts | 183° |
| 2026-05-06 17:59 | 50.09598 | 13.99000 | 10970 ft | 331 kts | 160° |
| 2026-05-06 17:59 | 50.07615 | 14.00980 | 11722 ft | 342 kts | 143° |
| 2026-05-06 18:00 | 50.05872 | 14.03560 | 12536 ft | 349 kts | 137° |
| 2026-05-06 18:00 | 50.04225 | 14.06312 | 13321 ft | 355 kts | 136° |
| 2026-05-06 18:00 | 50.02549 | 14.09160 | 14053 ft | 359 kts | 136° |
| 2026-05-06 18:00 | 50.00838 | 14.12016 | 14577 ft | 362 kts | 137° |
| 2026-05-06 18:01 | 49.99096 | 14.14866 | 15267 ft | 364 kts | 137° |
| 2026-05-06 18:01 | 49.97343 | 14.17701 | 15654 ft | 365 kts | 137° |
| 2026-05-06 18:01 | 49.95565 | 14.20556 | 16274 ft | 369 kts | 138° |
| 2026-05-06 18:01 | 49.93781 | 14.23414 | 16608 ft | 369 kts | 138° |
| 2026-05-06 18:02 | 49.91992 | 14.26278 | 16729 ft | 369 kts | 139° |
| 2026-05-06 18:02 | 49.90202 | 14.29136 | 16744 ft | 369 kts | 139° |
| 2026-05-06 18:02 | 49.88369 | 14.32051 | 16743 ft | 389 kts | 139° |
| 2026-05-06 18:02 | 49.86452 | 14.35094 | 16743 ft | 410 kts | 138° |
| 2026-05-06 18:03 | 49.84417 | 14.38326 | 16745 ft | 430 kts | 138° |
| 2026-05-06 18:03 | 49.82293 | 14.41703 | 16743 ft | 442 kts | 138° |
| 2026-05-06 18:03 | 49.80144 | 14.45125 | 16741 ft | 443 kts | 138° |
| 2026-05-06 18:03 | 49.77997 | 14.48539 | 16733 ft | 443 kts | 138° |
| 2026-05-06 18:04 | 49.75847 | 14.51948 | 16733 ft | 443 kts | 138° |
| 2026-05-06 18:04 | 49.73696 | 14.55351 | 16732 ft | 442 kts | 138° |
| 2026-05-06 18:04 | 49.71550 | 14.58740 | 16715 ft | 438 kts | 138° |
| 2026-05-06 18:04 | 49.69443 | 14.62066 | 16726 ft | 441 kts | 139° |
| 2026-05-06 18:05 | 49.67295 | 14.65447 | 16727 ft | 440 kts | 139° |
| 2026-05-06 18:05 | 49.65150 | 14.68820 | 16732 ft | 440 kts | 139° |
| 2026-05-06 18:05 | 49.63002 | 14.72192 | 16728 ft | 441 kts | 139° |
| 2026-05-06 18:05 | 49.60858 | 14.75554 | 16722 ft | 441 kts | 139° |
| 2026-05-06 18:06 | 49.58704 | 14.78928 | 16731 ft | 441 kts | 139° |
| 2026-05-06 18:06 | 49.56552 | 14.82294 | 16718 ft | 441 kts | 139° |
| 2026-05-06 18:06 | 49.54398 | 14.85654 | 16710 ft | 440 kts | 139° |
| 2026-05-06 18:06 | 49.52128 | 14.88783 | 16716 ft | 437 kts | 146° |
| 2026-05-06 18:07 | 49.49745 | 14.91566 | 16708 ft | 436 kts | 147° |
| 2026-05-06 18:07 | 49.47327 | 14.94372 | 16706 ft | 434 kts | 147° |
| 2026-05-06 18:07 | 49.44924 | 14.97168 | 16713 ft | 434 kts | 147° |
| 2026-05-06 18:07 | 49.42515 | 14.99970 | 16712 ft | 435 kts | 147° |
| 2026-05-06 18:08 | 49.40105 | 15.02771 | 16708 ft | 435 kts | 147° |
| 2026-05-06 18:08 | 49.37695 | 15.05569 | 16711 ft | 435 kts | 147° |
| 2026-05-06 18:08 | 49.35283 | 15.08366 | 16711 ft | 435 kts | 147° |
| 2026-05-06 18:08 | 49.32871 | 15.11159 | 16708 ft | 435 kts | 147° |
| 2026-05-06 18:09 | 49.30459 | 15.13949 | 16709 ft | 435 kts | 147° |
| 2026-05-06 18:09 | 49.28075 | 15.16703 | 16708 ft | 435 kts | 147° |
| 2026-05-06 18:09 | 49.25663 | 15.19486 | 16707 ft | 435 kts | 147° |
| 2026-05-06 18:09 | 49.23247 | 15.22269 | 16707 ft | 435 kts | 147° |
| 2026-05-06 18:10 | 49.20831 | 15.25050 | 16679 ft | 435 kts | 147° |
| 2026-05-06 18:10 | 49.18416 | 15.27824 | 16487 ft | 434 kts | 147° |
| 2026-05-06 18:10 | 49.16028 | 15.30568 | 16080 ft | 424 kts | 147° |
| 2026-05-06 18:10 | 49.13699 | 15.33244 | 15593 ft | 413 kts | 147° |
| 2026-05-06 18:11 | 49.11429 | 15.35847 | 15094 ft | 403 kts | 147° |
| 2026-05-06 18:11 | 49.09213 | 15.38382 | 14607 ft | 393 kts | 147° |
| 2026-05-06 18:11 | 49.07047 | 15.40853 | 14128 ft | 386 kts | 147° |
| 2026-05-06 18:11 | 49.04913 | 15.43281 | 13660 ft | 388 kts | 147° |
| 2026-05-06 18:12 | 49.02755 | 15.45737 | 13148 ft | 386 kts | 146° |
| 2026-05-06 18:12 | 49.00623 | 15.48163 | 12803 ft | 379 kts | 146° |
| 2026-05-06 18:12 | 48.98510 | 15.50566 | 12701 ft | 381 kts | 146° |
| 2026-05-06 18:12 | 48.96380 | 15.52984 | 12706 ft | 382 kts | 146° |
| 2026-05-06 18:13 | 48.94257 | 15.55394 | 12701 ft | 375 kts | 146° |
| 2026-05-06 18:13 | 48.92224 | 15.57707 | 12700 ft | 355 kts | 147° |
| 2026-05-06 18:13 | 48.90297 | 15.59899 | 12705 ft | 340 kts | 147° |
| 2026-05-06 18:13 | 48.88383 | 15.62064 | 12704 ft | 346 kts | 147° |
| 2026-05-06 18:14 | 48.86479 | 15.64292 | 12705 ft | 345 kts | 145° |
| 2026-05-06 18:14 | 48.84628 | 15.66526 | 12705 ft | 345 kts | 145° |
| 2026-05-06 18:14 | 48.82753 | 15.68799 | 12705 ft | 345 kts | 145° |
| 2026-05-06 18:14 | 48.80870 | 15.71073 | 12529 ft | 346 kts | 145° |
| 2026-05-06 18:15 | 48.78991 | 15.73331 | 12074 ft | 343 kts | 145° |
| 2026-05-06 18:15 | 48.77125 | 15.75566 | 11560 ft | 340 kts | 145° |
| 2026-05-06 18:15 | 48.75275 | 15.77777 | 11066 ft | 337 kts | 145° |
| 2026-05-06 18:15 | 48.73438 | 15.79967 | 10578 ft | 334 kts | 145° |
| 2026-05-06 18:16 | 48.71636 | 15.82116 | 10286 ft | 325 kts | 145° |
| 2026-05-06 18:16 | 48.69906 | 15.84178 | 10045 ft | 316 kts | 145° |
| 2026-05-06 18:16 | 48.68205 | 15.86203 | 9790 ft | 307 kts | 145° |
| 2026-05-06 18:16 | 48.66570 | 15.88152 | 9542 ft | 291 kts | 146° |
| 2026-05-06 18:17 | 48.65007 | 15.90010 | 9285 ft | 284 kts | 146° |
| 2026-05-06 18:17 | 48.63446 | 15.91856 | 9037 ft | 284 kts | 146° |
| 2026-05-06 18:17 | 48.61979 | 15.93591 | 8898 ft | 282 kts | 145° |
| 2026-05-06 18:17 | 48.60307 | 15.95050 | 8828 ft | 278 kts | 163° |
| 2026-05-06 18:18 | 48.58471 | 15.95973 | 8577 ft | 277 kts | 165° |
| 2026-05-06 18:18 | 48.56656 | 15.96868 | 8332 ft | 274 kts | 165° |
| 2026-05-06 18:18 | 48.54838 | 15.97760 | 8076 ft | 275 kts | 165° |
| 2026-05-06 18:18 | 48.53022 | 15.98642 | 7831 ft | 274 kts | 165° |
| 2026-05-06 18:19 | 48.51225 | 15.99438 | 7578 ft | 271 kts | 171° |
| 2026-05-06 18:19 | 48.49367 | 15.99883 | 7333 ft | 270 kts | 175° |
| 2026-05-06 18:19 | 48.47517 | 16.00242 | 7071 ft | 264 kts | 175° |
| 2026-05-06 18:19 | 48.45735 | 16.00587 | 6835 ft | 251 kts | 175° |
| 2026-05-06 18:20 | 48.44047 | 16.00917 | 6591 ft | 239 kts | 175° |
| 2026-05-06 18:20 | 48.42430 | 16.01236 | 6347 ft | 228 kts | 175° |
| 2026-05-06 18:20 | 48.40904 | 16.01646 | 6089 ft | 220 kts | 161° |
| 2026-05-06 18:20 | 48.39544 | 16.02658 | 5845 ft | 217 kts | 155° |
| 2026-05-06 18:21 | 48.38212 | 16.03784 | 5601 ft | 224 kts | 153° |
| 2026-05-06 18:21 | 48.37019 | 16.05247 | 5351 ft | 224 kts | 141° |
| 2026-05-06 18:21 | 48.35925 | 16.06888 | 5103 ft | 220 kts | 140° |
| 2026-05-06 18:21 | 48.34870 | 16.08516 | 4961 ft | 217 kts | 140° |
| 2026-05-06 18:22 | 48.33806 | 16.10162 | 4942 ft | 220 kts | 140° |
| 2026-05-06 18:22 | 48.32751 | 16.11794 | 4954 ft | 217 kts | 140° |
| 2026-05-06 18:22 | 48.31692 | 16.13421 | 4955 ft | 218 kts | 140° |
| 2026-05-06 18:22 | 48.30629 | 16.15051 | 4956 ft | 218 kts | 140° |
| 2026-05-06 18:23 | 48.29528 | 16.16598 | 4966 ft | 216 kts | 144° |
| 2026-05-06 18:23 | 48.28419 | 16.18042 | 4976 ft | 203 kts | 145° |
| 2026-05-06 18:23 | 48.27406 | 16.19384 | 4971 ft | 190 kts | 145° |
| 2026-05-06 18:23 | 48.26410 | 16.20707 | 4975 ft | 195 kts | 145° |
| 2026-05-06 18:24 | 48.25399 | 16.22048 | 4977 ft | 194 kts | 145° |
| 2026-05-06 18:24 | 48.24389 | 16.23384 | 4976 ft | 193 kts | 145° |
| 2026-05-06 18:24 | 48.23380 | 16.24719 | 4982 ft | 194 kts | 145° |
| 2026-05-06 18:24 | 48.22370 | 16.26055 | 4980 ft | 194 kts | 145° |
| 2026-05-06 18:25 | 48.21360 | 16.27387 | 4984 ft | 194 kts | 145° |
| 2026-05-06 18:25 | 48.20421 | 16.28870 | 4920 ft | 199 kts | 133° |
| 2026-05-06 18:25 | 48.19670 | 16.30638 | 4618 ft | 203 kts | 125° |
| 2026-05-06 18:25 | 48.19020 | 16.32552 | 4162 ft | 208 kts | 122° |
| 2026-05-06 18:26 | 48.18394 | 16.34503 | 3692 ft | 209 kts | 123° |
| 2026-05-06 18:26 | 48.17768 | 16.36433 | 3222 ft | 206 kts | 123° |
| 2026-05-06 18:26 | 48.17170 | 16.38290 | 2868 ft | 187 kts | 123° |
| 2026-05-06 18:26 | 48.16605 | 16.40019 | 2609 ft | 187 kts | 123° |
| 2026-05-06 18:27 | 48.16045 | 16.41751 | 2358 ft | 182 kts | 123° |
| 2026-05-06 18:27 | 48.15521 | 16.43375 | 2076 ft | 164 kts | 124° |
| 2026-05-06 18:27 | 48.15048 | 16.44836 | 1860 ft | 149 kts | 127° |
| 2026-05-06 18:27 | 48.14614 | 16.46170 | 1670 ft | 137 kts | 126° |
| 2026-05-06 18:28 | 48.14187 | 16.47474 | 1477 ft | 139 kts | 126° |
| 2026-05-06 18:28 | 48.13750 | 16.48810 | 1294 ft | 146 kts | 125° |
| 2026-05-06 18:28 | 48.13313 | 16.50158 | 1091 ft | 143 kts | 124° |
| 2026-05-06 18:28 | 48.12891 | 16.51462 | 913 ft | 135 kts | 121° |
| 2026-05-06 18:29 | 48.12477 | 16.52733 | 732 ft | 139 kts | 120° |
| 2026-05-06 18:29 | 48.12071 | 16.53998 | 626 ft | 130 kts | 122° |
| 2026-05-06 18:29 | 48.11732 | 16.55005 | 613 ft | 81 kts | 118° |
| 2026-05-06 18:29 | 48.11534 | 16.55668 | 611 ft | 55 kts | 108° |
| 2026-05-06 18:30 | 48.11508 | 16.56023 | 609 ft | 19 kts | 86° |
| 2026-05-06 18:30 | 48.11523 | 16.56111 | 617 ft | 0 kts | 57° |
| 2026-05-06 18:31 | 48.11524 | 16.56112 | 617 ft | 1 kts | 57° |
| 2026-05-06 18:32 | 48.11529 | 16.56123 | 616 ft | 3 kts | 53° |